Time;durP1;ratioP1;P1;durP2;ratioP2;P2;SDS_P1;SDS_P2;PMS_P1;PMS_P2;Temp;Humidity;BMP_temperature;BMP_pressure;BME280_temperature;BME280_humidity;BME280_pressure;Samples;Min_cycle;Max_cycle;Signal;HPM_P1;HPM_P2
2020/12/05 00:01:52;;;;;;;1.80;0.30;;;5.00;99.90;;;;;;5024176;28;20221;-63
2020/12/05 00:04:18;;;;;;;1.70;0.20;;;5.00;99.90;;;;;;5023356;28;20190;-63
2020/12/05 00:06:44;;;;;;;1.70;0.20;;;5.00;99.90;;;;;;5026235;28;20193;-63
2020/12/05 00:09:10;;;;;;;1.70;0.20;;;5.00;99.90;;;;;;5030085;28;20641;-63
2020/12/05 00:11:36;;;;;;;1.70;0.20;;;5.10;99.90;;;;;;5035156;28;20444;-62
2020/12/05 00:14:02;;;;;;;1.70;0.20;;;5.10;99.90;;;;;;5032867;28;20182;-63
2020/12/05 00:16:27;;;;;;;1.70;0.20;;;5.10;99.90;;;;;;5030768;28;20687;-64
2020/12/05 00:18:54;;;;;;;1.70;0.20;;;5.00;99.90;;;;;;5033532;28;20641;-64
2020/12/05 00:21:23;;;;;;;1.70;0.20;;;5.00;99.90;;;;;;5033828;28;20289;-63
2020/12/05 00:23:50;;;;;;;1.70;0.20;;;5.00;99.90;;;;;;5035237;28;20214;-64
2020/12/05 00:26:19;;;;;;;1.70;0.20;;;4.90;99.90;;;;;;5049627;28;20447;-64
2020/12/05 00:28:46;;;;;;;1.70;0.20;;;5.00;99.90;;;;;;5046965;28;20206;-65
2020/12/05 00:31:13;;;;;;;1.75;0.20;;;5.00;99.90;;;;;;5042951;28;20215;-64
2020/12/05 00:33:39;;;;;;;1.70;0.20;;;5.00;99.90;;;;;;5039403;28;20212;-63
2020/12/05 00:36:05;;;;;;;1.70;0.30;;;5.00;99.90;;;;;;5031106;28;20190;-64
2020/12/05 00:38:30;;;;;;;1.80;0.20;;;5.00;99.90;;;;;;5031651;28;20693;-64
2020/12/05 00:40:56;;;;;;;1.70;0.20;;;4.90;99.90;;;;;;5029275;28;20209;-64
2020/12/05 00:43:22;;;;;;;1.70;0.20;;;5.00;99.90;;;;;;5040675;28;20869;-64
2020/12/05 00:45:49;;;;;;;1.70;0.20;;;5.00;99.90;;;;;;5034319;28;20192;-63
2020/12/05 00:48:15;;;;;;;1.70;0.20;;;5.00;99.90;;;;;;5029169;28;20471;-63
2020/12/05 00:50:40;;;;;;;1.70;0.20;;;5.00;99.90;;;;;;5026528;28;20203;-64
2020/12/05 00:53:06;;;;;;;1.70;0.20;;;5.00;99.90;;;;;;5031705;28;20201;-63
2020/12/05 00:55:31;;;;;;;1.70;0.20;;;5.00;99.90;;;;;;5032517;28;20186;-63
2020/12/05 00:57:57;;;;;;;1.70;0.20;;;5.00;99.90;;;;;;5030528;28;20209;-64
2020/12/05 01:00:22;;;;;;;1.70;0.20;;;4.90;99.90;;;;;;5033013;28;20217;-64
2020/12/05 01:02:48;;;;;;;1.73;0.20;;;4.90;99.90;;;;;;5024853;28;20243;-64
2020/12/05 01:05:14;;;;;;;1.70;0.20;;;4.80;99.90;;;;;;5026141;28;20261;-64
2020/12/05 01:07:40;;;;;;;1.70;0.30;;;4.70;99.90;;;;;;5032931;28;20656;-64
2020/12/05 01:10:06;;;;;;;1.70;0.20;;;4.60;99.90;;;;;;5029105;28;20460;-64
2020/12/05 01:12:31;;;;;;;1.80;0.40;;;4.50;99.90;;;;;;5029060;28;20616;-64
2020/12/05 01:15:01;;;;;;;1.70;0.20;;;4.50;99.90;;;;;;5027959;28;20229;-64
2020/12/05 01:17:28;;;;;;;1.70;0.20;;;4.50;99.90;;;;;;5033115;28;20268;-64
2020/12/05 01:19:56;;;;;;;1.70;0.20;;;4.40;99.90;;;;;;5030451;28;20275;-64
2020/12/05 01:22:22;;;;;;;2.20;1.85;;;4.30;99.90;;;;;;5025086;28;20178;-64
2020/12/05 01:24:48;;;;;;;1.70;0.20;;;4.40;99.90;;;;;;5029933;28;20193;-64
2020/12/05 01:27:14;;;;;;;1.70;0.20;;;4.40;99.90;;;;;;5031454;28;20213;-64
2020/12/05 01:29:39;;;;;;;1.70;0.20;;;4.40;99.90;;;;;;5030028;28;20182;-64
2020/12/05 01:32:05;;;;;;;4.20;2.23;;;4.40;99.90;;;;;;5023398;28;20681;-64
2020/12/05 01:34:30;;;;;;;1.70;0.20;;;4.40;99.90;;;;;;5034444;28;20258;-64
2020/12/05 01:36:55;;;;;;;1.80;0.50;;;4.30;99.90;;;;;;5031317;28;20189;-64
2020/12/05 01:39:21;;;;;;;1.70;0.20;;;4.30;99.90;;;;;;5035633;28;20188;-64
2020/12/05 01:41:46;;;;;;;1.70;0.20;;;4.30;99.90;;;;;;5034407;28;20286;-64
2020/12/05 01:44:12;;;;;;;1.70;0.20;;;4.40;99.90;;;;;;5037655;28;20611;-64
2020/12/05 01:46:39;;;;;;;1.73;0.20;;;4.40;99.90;;;;;;5032740;28;20193;-64
2020/12/05 01:49:07;;;;;;;1.77;0.20;;;4.50;99.90;;;;;;5031862;28;20197;-64
2020/12/05 01:51:34;;;;;;;1.70;0.20;;;4.40;99.90;;;;;;5028638;28;20217;-64
2020/12/05 01:54:00;;;;;;;1.70;0.20;;;4.40;99.90;;;;;;5028723;28;20216;-64
2020/12/05 01:56:27;;;;;;;1.70;0.20;;;4.30;99.90;;;;;;5027332;28;20186;-63
2020/12/05 01:58:53;;;;;;;2.00;1.05;;;4.30;99.90;;;;;;5030558;28;20189;-63
2020/12/05 02:01:25;;;;;;;3.88;3.40;;;4.20;99.90;;;;;;5030887;28;20225;-62
2020/12/05 02:03:54;;;;;;;1.70;0.20;;;4.20;99.90;;;;;;5025928;28;20198;-64
2020/12/05 02:06:41;;;;;;;1.70;0.20;;;4.20;99.90;;;;;;5033939;28;20194;-64
2020/12/05 02:09:25;;;;;;;1.70;0.20;;;4.20;99.90;;;;;;5030433;28;20198;-63
2020/12/05 02:12:21;;;;;;;1.73;0.20;;;4.10;99.90;;;;;;5034342;28;20264;-64
2020/12/05 02:14:51;;;;;;;1.73;0.20;;;4.10;99.90;;;;;;5037227;28;20187;-63
2020/12/05 02:17:18;;;;;;;1.90;0.75;;;4.00;99.90;;;;;;5032550;28;20182;-64
2020/12/05 02:19:52;;;;;;;1.92;0.82;;;4.00;99.90;;;;;;5038154;28;20181;-64
2020/12/05 02:22:27;;;;;;;1.70;0.20;;;4.10;99.90;;;;;;5035331;28;20755;-63
2020/12/05 02:24:56;;;;;;;1.70;0.20;;;4.10;99.90;;;;;;5032286;28;20212;-68
2020/12/05 02:27:23;;;;;;;1.70;0.20;;;4.00;99.90;;;;;;5035361;28;20673;-63
2020/12/05 02:29:49;;;;;;;1.70;0.20;;;3.90;99.90;;;;;;5029899;28;20696;-64
2020/12/05 02:32:14;;;;;;;1.70;0.20;;;3.80;99.90;;;;;;5038456;28;20213;-63
2020/12/05 02:34:40;;;;;;;1.90;0.93;;;3.80;99.90;;;;;;5044032;28;20193;-63
2020/12/05 02:37:11;;;;;;;1.70;0.20;;;3.90;99.90;;;;;;5042186;28;20197;-63
2020/12/05 02:39:40;;;;;;;1.90;0.65;;;3.90;99.90;;;;;;5040777;28;20190;-63
2020/12/05 02:42:10;;;;;;;1.70;0.20;;;3.90;99.90;;;;;;5047922;28;20620;-64
2020/12/05 02:44:44;;;;;;;1.70;0.20;;;4.00;99.90;;;;;;5041786;28;21132;-64
2020/12/05 02:47:09;;;;;;;1.70;0.20;;;4.00;99.90;;;;;;5037923;28;20225;-64
2020/12/05 02:49:35;;;;;;;1.70;0.20;;;4.10;99.90;;;;;;5038138;28;20186;-64
2020/12/05 02:52:00;;;;;;;1.80;0.40;;;4.10;99.90;;;;;;5039249;28;20214;-64
2020/12/05 02:54:26;;;;;;;1.70;0.20;;;4.10;99.90;;;;;;5045177;28;20166;-63
2020/12/05 02:56:51;;;;;;;3.03;2.37;;;4.10;99.90;;;;;;5036866;28;21349;-64
2020/12/05 02:59:17;;;;;;;2.60;1.27;;;4.00;99.90;;;;;;5034648;28;20245;-63
2020/12/05 03:01:42;;;;;;;9.10;5.70;;;3.80;99.90;;;;;;5034862;28;20237;-66
2020/12/05 03:04:07;;;;;;;3.50;2.73;;;3.80;99.90;;;;;;5024996;28;20652;-63
2020/12/05 03:06:33;;;;;;;1.70;0.20;;;3.60;99.90;;;;;;5027921;28;20193;-65
2020/12/05 03:08:58;;;;;;;2.17;0.67;;;3.60;99.90;;;;;;5028801;28;20293;-64
2020/12/05 03:11:24;;;;;;;2.77;0.47;;;3.50;99.90;;;;;;5034649;28;20573;-64
2020/12/05 03:13:49;;;;;;;1.70;0.20;;;3.50;99.90;;;;;;5031855;28;20198;-65
2020/12/05 03:16:15;;;;;;;2.30;1.23;;;3.50;99.90;;;;;;5032448;28;20186;-64
2020/12/05 03:18:40;;;;;;;1.80;0.30;;;3.60;99.90;;;;;;5030313;28;20200;-64
2020/12/05 03:21:06;;;;;;;1.70;0.20;;;3.60;99.90;;;;;;5025376;28;20269;-64
2020/12/05 03:23:31;;;;;;;3.90;3.60;;;3.70;99.90;;;;;;5026449;28;20201;-64
2020/12/05 03:25:57;;;;;;;4.93;3.17;;;3.80;99.90;;;;;;5029745;28;20263;-64
2020/12/05 03:28:26;;;;;;;1.70;0.20;;;3.80;99.90;;;;;;5034065;28;20217;-68
2020/12/05 03:30:52;;;;;;;1.70;0.20;;;3.80;99.90;;;;;;5039902;28;20202;-63
2020/12/05 03:33:18;;;;;;;1.77;0.50;;;3.70;99.90;;;;;;5047162;28;20188;-66
2020/12/05 03:35:43;;;;;;;1.80;0.63;;;3.80;99.90;;;;;;5044526;28;20791;-64
2020/12/05 03:38:09;;;;;;;3.37;2.60;;;3.70;99.90;;;;;;5033567;28;20190;-64
2020/12/05 03:40:37;;;;;;;7.80;7.00;;;3.70;99.90;;;;;;5024527;28;20210;-64
2020/12/05 03:43:03;;;;;;;1.80;0.52;;;3.70;99.90;;;;;;5030470;28;20189;-64
2020/12/05 03:45:30;;;;;;;1.70;0.20;;;3.70;99.90;;;;;;5032592;28;20243;-64
2020/12/05 03:47:56;;;;;;;1.70;0.20;;;3.80;99.90;;;;;;5035391;28;20254;-64
2020/12/05 03:50:21;;;;;;;1.70;0.20;;;3.80;99.90;;;;;;5033555;28;20587;-63
2020/12/05 03:52:47;;;;;;;1.70;0.20;;;3.80;99.90;;;;;;5030400;28;20224;-63
2020/12/05 03:55:12;;;;;;;1.80;0.50;;;3.80;99.90;;;;;;5032609;28;20285;-64
2020/12/05 03:57:38;;;;;;;1.70;0.20;;;3.90;99.90;;;;;;5035105;28;20213;-64
2020/12/05 04:00:04;;;;;;;1.70;0.20;;;3.90;99.90;;;;;;5033693;28;20273;-64
2020/12/05 04:02:29;;;;;;;1.70;0.20;;;3.90;99.90;;;;;;5031835;28;20205;-63
2020/12/05 04:04:55;;;;;;;2.67;1.17;;;3.90;99.90;;;;;;5023593;28;20182;-63
2020/12/05 04:07:20;;;;;;;1.80;0.20;;;3.90;99.90;;;;;;5036387;28;20205;-63
2020/12/05 04:09:46;;;;;;;6.03;2.77;;;3.80;99.90;;;;;;5031286;28;20240;-63
2020/12/05 04:12:11;;;;;;;4.67;3.07;;;3.70;99.90;;;;;;5033979;28;20294;-68
2020/12/05 04:14:37;;;;;;;4.27;2.00;;;3.70;99.90;;;;;;5034767;28;20198;-63
2020/12/05 04:17:02;;;;;;;1.70;0.20;;;3.60;99.90;;;;;;5044583;28;20194;-63
2020/12/05 04:19:28;;;;;;;10.27;4.93;;;3.60;99.90;;;;;;5033221;28;20260;-63
2020/12/05 04:21:53;;;;;;;5.10;4.00;;;3.60;99.90;;;;;;5029832;28;20269;-63
2020/12/05 04:24:19;;;;;;;1.80;0.20;;;3.50;99.90;;;;;;5033291;28;20202;-63
2020/12/05 04:26:44;;;;;;;1.70;0.20;;;3.60;99.90;;;;;;5028361;28;20195;-63
2020/12/05 04:29:10;;;;;;;1.70;0.20;;;3.60;99.90;;;;;;5029190;28;20197;-64
2020/12/05 04:31:35;;;;;;;1.70;0.20;;;3.70;99.90;;;;;;5030868;28;20210;-63
2020/12/05 04:34:01;;;;;;;1.70;0.20;;;3.80;99.90;;;;;;5032439;28;20212;-64
2020/12/05 04:36:26;;;;;;;1.70;0.20;;;3.80;99.90;;;;;;5029554;28;20192;-64
2020/12/05 04:38:52;;;;;;;1.70;0.20;;;3.80;99.90;;;;;;5032799;28;20198;-63
2020/12/05 04:41:18;;;;;;;1.70;0.20;;;3.80;99.90;;;;;;5024810;28;20216;-63
2020/12/05 04:43:44;;;;;;;15.23;9.95;;;3.80;99.90;;;;;;5029827;28;20194;-64
2020/12/05 04:46:11;;;;;;;1.70;0.20;;;3.80;99.90;;;;;;5031784;28;20209;-64
2020/12/05 04:48:39;;;;;;;3.25;1.25;;;3.80;99.90;;;;;;5027470;28;20206;-63
2020/12/05 04:51:06;;;;;;;5.43;3.50;;;3.80;99.90;;;;;;5029754;28;20205;-64
2020/12/05 04:53:32;;;;;;;1.70;0.20;;;3.70;99.90;;;;;;5030388;28;20250;-63
2020/12/05 04:55:59;;;;;;;7.00;2.67;;;3.80;99.90;;;;;;5034300;28;20205;-64
2020/12/05 04:58:25;;;;;;;1.90;0.60;;;3.80;99.90;;;;;;5034859;28;20182;-64
2020/12/05 05:00:53;;;;;;;4.50;3.60;;;3.80;99.90;;;;;;5039255;28;20584;-64
2020/12/05 05:03:24;;;;;;;2.00;1.15;;;3.80;99.90;;;;;;5027877;28;20836;-64
2020/12/05 05:05:55;;;;;;;1.73;0.20;;;3.80;99.90;;;;;;5026385;28;20190;-64
2020/12/05 05:08:24;;;;;;;1.77;0.30;;;3.80;99.90;;;;;;5039232;28;20202;-63
2020/12/05 05:11:09;;;;;;;4.18;3.25;;;3.80;99.90;;;;;;5031802;28;20200;-64
2020/12/05 05:13:59;;;;;;;7.00;4.72;;;3.80;99.90;;;;;;5028967;28;20189;-64
2020/12/05 05:16:28;;;;;;;6.30;5.70;;;3.80;99.90;;;;;;5033921;28;20193;-64
2020/12/05 05:18:53;;;;;;;1.70;0.20;;;3.80;99.90;;;;;;5035759;28;20268;-63
2020/12/05 05:21:39;;;;;;;2.27;1.63;;;3.80;99.90;;;;;;5028909;28;20631;-64
2020/12/05 05:24:16;;;;;;;11.40;6.55;;;3.90;99.90;;;;;;5036090;28;20190;-63
2020/12/05 05:26:43;;;;;;;3.65;2.85;;;3.90;99.90;;;;;;5036607;28;20276;-63
2020/12/05 05:29:23;;;;;;;1.70;0.20;;;3.90;99.90;;;;;;5029475;28;20200;-62
2020/12/05 05:31:53;;;;;;;11.82;9.20;;;3.90;99.90;;;;;;5030285;28;20206;-62
2020/12/05 05:34:21;;;;;;;5.90;1.42;;;3.90;99.90;;;;;;5032058;28;20217;-63
2020/12/05 05:36:46;;;;;;;2.35;0.85;;;4.00;99.90;;;;;;5032290;28;20180;-61
2020/12/05 05:39:13;;;;;;;5.63;5.23;;;3.90;99.90;;;;;;5028956;28;20182;-62
2020/12/05 05:41:39;;;;;;;1.70;0.20;;;4.00;99.90;;;;;;5025357;28;20233;-63
2020/12/05 05:44:11;;;;;;;1.70;0.20;;;4.00;99.90;;;;;;5027912;28;20179;-62
2020/12/05 05:46:42;;;;;;;1.70;0.20;;;4.10;99.90;;;;;;5021360;28;20269;-63
2020/12/05 05:49:10;;;;;;;6.22;3.75;;;4.10;99.90;;;;;;5027065;28;20573;-64
2020/12/05 05:51:37;;;;;;;3.65;1.17;;;4.10;99.90;;;;;;5031815;28;20212;-62
2020/12/05 05:54:23;;;;;;;2.75;1.45;;;4.10;99.90;;;;;;5033018;28;20217;-61
2020/12/05 05:57:07;;;;;;;1.75;0.30;;;4.10;99.90;;;;;;5026385;28;20665;-62
2020/12/05 05:59:37;;;;;;;1.70;0.20;;;4.20;99.90;;;;;;5023517;28;20210;-61
2020/12/05 06:02:09;;;;;;;5.35;3.40;;;4.20;99.90;;;;;;5031431;28;20241;-61
2020/12/05 06:04:42;;;;;;;7.88;5.15;;;4.30;99.90;;;;;;5039766;28;20193;-62
2020/12/05 06:07:19;;;;;;;1.70;0.20;;;4.30;99.90;;;;;;5047140;28;20198;-62
2020/12/05 06:09:53;;;;;;;3.03;1.25;;;4.30;99.90;;;;;;5038579;28;20170;-64
2020/12/05 06:12:32;;;;;;;3.80;2.75;;;4.40;99.90;;;;;;5046978;28;20193;-62
2020/12/05 06:14:57;;;;;;;9.38;6.20;;;4.40;99.90;;;;;;5026837;28;20193;-62
2020/12/05 06:17:23;;;;;;;1.70;0.20;;;4.50;99.90;;;;;;5028287;28;20193;-61
2020/12/05 06:19:51;;;;;;;2.08;0.60;;;4.50;99.90;;;;;;5028888;28;20281;-61
2020/12/05 06:22:42;;;;;;;1.70;0.20;;;4.50;99.90;;;;;;5031900;28;20189;-61
2020/12/05 06:25:16;;;;;;;1.70;0.20;;;4.50;99.90;;;;;;5029205;28;20572;-61
2020/12/05 06:27:51;;;;;;;1.70;0.20;;;4.50;99.90;;;;;;5028375;28;20301;-61
2020/12/05 06:30:17;;;;;;;9.27;4.53;;;4.50;99.90;;;;;;5026133;28;20280;-62
2020/12/05 06:32:45;;;;;;;4.63;1.95;;;4.50;99.90;;;;;;5032104;28;20178;-62
2020/12/05 06:35:22;;;;;;;1.70;0.20;;;4.50;99.90;;;;;;5027744;28;20174;-62
2020/12/05 06:37:52;;;;;;;1.70;0.20;;;4.50;99.90;;;;;;5023828;28;20186;-61
2020/12/05 06:40:18;;;;;;;2.28;0.50;;;4.50;99.90;;;;;;5030667;28;20255;-61
2020/12/05 06:42:46;;;;;;;1.90;0.70;;;4.50;99.90;;;;;;5047155;28;20214;-63
2020/12/05 06:45:35;;;;;;;1.70;0.20;;;4.50;99.90;;;;;;5031874;28;20272;-61
2020/12/05 06:48:09;;;;;;;1.70;0.20;;;4.50;99.90;;;;;;5015879;28;20313;-61
2020/12/05 06:50:43;;;;;;;1.70;0.20;;;4.50;99.90;;;;;;5031434;28;20308;-62
2020/12/05 06:53:21;;;;;;;1.70;0.20;;;4.50;99.90;;;;;;5023045;28;20264;-61
2020/12/05 06:55:48;;;;;;;6.75;4.85;;;4.50;99.90;;;;;;5027357;28;20188;-61
2020/12/05 06:58:14;;;;;;;1.70;0.20;;;4.50;99.90;;;;;;5030057;28;20197;-62
2020/12/05 07:00:41;;;;;;;1.70;0.20;;;4.50;99.90;;;;;;5020750;28;20246;-62
2020/12/05 07:03:08;;;;;;;1.70;0.20;;;4.50;99.90;;;;;;5021292;28;20197;-62
2020/12/05 07:05:38;;;;;;;1.70;0.20;;;4.50;99.90;;;;;;5031611;28;20194;-62
2020/12/05 07:08:34;;;;;;;5.38;3.78;;;4.50;99.90;;;;;;5021371;28;20216;-62
2020/12/05 07:11:15;;;;;;;9.60;5.45;;;4.50;99.90;;;;;;5025228;28;20283;-62
2020/12/05 07:13:43;;;;;;;1.70;0.20;;;4.50;99.90;;;;;;5017492;28;20185;-64
2020/12/05 07:16:17;;;;;;;2.38;1.85;;;4.40;99.90;;;;;;5028618;28;20228;-61
2020/12/05 07:18:57;;;;;;;3.10;1.73;;;4.50;99.90;;;;;;5019522;28;20202;-61
2020/12/05 07:21:26;;;;;;;1.70;0.32;;;4.40;99.90;;;;;;5024692;28;20737;-63
2020/12/05 07:23:52;;;;;;;1.70;0.20;;;4.40;99.90;;;;;;5031099;28;20278;-61
2020/12/05 07:26:18;;;;;;;3.83;2.70;;;4.40;99.90;;;;;;5025888;28;20186;-61
2020/12/05 07:28:48;;;;;;;1.70;0.20;;;4.40;99.90;;;;;;5030266;28;20260;-61
2020/12/05 07:31:15;;;;;;;2.28;1.05;;;4.40;99.90;;;;;;5024868;28;20781;-63
2020/12/05 07:33:42;;;;;;;1.83;0.52;;;4.40;99.90;;;;;;5024255;28;20179;-62
2020/12/05 07:36:09;;;;;;;1.70;0.20;;;4.40;99.90;;;;;;5029866;28;20685;-62
2020/12/05 07:38:37;;;;;;;1.77;0.45;;;4.30;99.90;;;;;;5026434;28;20592;-61
2020/12/05 07:41:17;;;;;;;1.77;0.30;;;4.30;99.90;;;;;;5022213;28;20621;-61
2020/12/05 07:43:43;;;;;;;3.22;2.92;;;4.30;99.90;;;;;;5030299;28;20218;-61
2020/12/05 07:46:11;;;;;;;5.30;3.60;;;4.40;99.90;;;;;;5022710;28;20198;-62
2020/12/05 07:48:37;;;;;;;7.57;4.22;;;4.40;99.90;;;;;;5022333;28;20569;-62
2020/12/05 07:51:09;;;;;;;5.03;3.25;;;4.40;99.90;;;;;;5026682;28;20206;-62
2020/12/05 07:53:35;;;;;;;4.82;2.78;;;4.40;99.90;;;;;;5023517;28;20192;-62
2020/12/05 07:56:20;;;;;;;1.80;0.50;;;4.50;99.90;;;;;;5027130;28;20194;-62
2020/12/05 07:58:46;;;;;;;2.00;0.93;;;4.50;99.90;;;;;;5017902;28;20185;-62
2020/12/05 08:01:37;;;;;;;5.88;3.60;;;4.60;99.90;;;;;;5025648;28;20249;-62
2020/12/05 08:04:29;;;;;;;3.65;1.85;;;4.60;99.90;;;;;;5021889;28;20197;-62
2020/12/05 08:07:02;;;;;;;1.70;0.20;;;4.70;99.90;;;;;;5021359;28;20186;-62
2020/12/05 08:09:38;;;;;;;1.73;0.30;;;4.80;99.90;;;;;;5022662;28;20186;-62
2020/12/05 08:12:09;;;;;;;9.23;5.85;;;4.70;99.90;;;;;;5024495;28;20209;-62
2020/12/05 08:14:35;;;;;;;1.70;0.20;;;4.80;99.90;;;;;;5021034;28;20269;-63
2020/12/05 08:17:02;;;;;;;2.13;1.17;;;4.80;99.90;;;;;;5026617;28;20195;-62
2020/12/05 08:19:28;;;;;;;1.70;0.20;;;4.80;99.90;;;;;;5024574;28;20706;-63
2020/12/05 08:21:54;;;;;;;3.20;2.58;;;4.80;99.90;;;;;;5028754;28;20214;-63
2020/12/05 08:24:20;;;;;;;1.70;0.20;;;4.90;99.90;;;;;;5030338;28;20178;-62
2020/12/05 08:26:49;;;;;;;1.70;0.20;;;4.90;99.90;;;;;;5026875;28;20528;-62
2020/12/05 08:29:16;;;;;;;1.70;0.20;;;4.90;99.90;;;;;;5031727;28;20691;-62
2020/12/05 08:31:42;;;;;;;1.80;0.20;;;5.00;99.90;;;;;;5032995;28;20197;-61
2020/12/05 08:34:08;;;;;;;1.80;0.40;;;5.00;99.90;;;;;;5030240;28;20657;-60
2020/12/05 08:36:42;;;;;;;1.70;0.20;;;5.00;99.90;;;;;;5034081;28;20273;-62
2020/12/05 08:39:13;;;;;;;5.10;1.95;;;5.10;99.90;;;;;;5026414;28;20832;-61
2020/12/05 08:41:41;;;;;;;1.70;0.20;;;5.10;99.90;;;;;;5029979;28;20684;-61
2020/12/05 08:44:20;;;;;;;1.70;0.20;;;5.10;99.90;;;;;;5032022;28;20197;-62
2020/12/05 08:46:48;;;;;;;1.77;0.30;;;5.20;99.90;;;;;;5033782;28;20193;-63
2020/12/05 08:49:15;;;;;;;2.88;2.05;;;5.20;99.90;;;;;;5031374;28;20213;-63
2020/12/05 08:51:45;;;;;;;1.73;0.20;;;5.20;99.90;;;;;;5032816;28;20561;-63
2020/12/05 08:54:11;;;;;;;1.70;0.20;;;5.30;99.90;;;;;;5028492;28;20269;-63
2020/12/05 08:56:36;;;;;;;1.70;0.20;;;5.30;99.90;;;;;;5031528;28;20209;-62
2020/12/05 08:59:02;;;;;;;1.70;0.20;;;5.40;99.90;;;;;;5033802;28;21679;-63
2020/12/05 09:01:42;;;;;;;1.73;0.20;;;5.40;99.90;;;;;;5025458;28;20221;-63
2020/12/05 09:04:11;;;;;;;1.73;0.20;;;5.40;99.90;;;;;;5029099;28;20194;-63
2020/12/05 09:06:37;;;;;;;1.70;0.20;;;5.50;99.90;;;;;;5025056;28;20182;-63
2020/12/05 09:09:03;;;;;;;1.70;0.20;;;5.60;99.90;;;;;;5028219;28;20218;-63
2020/12/05 09:11:28;;;;;;;1.70;0.20;;;5.60;99.90;;;;;;5031083;28;20205;-63
2020/12/05 09:13:54;;;;;;;1.70;0.20;;;5.70;99.90;;;;;;5035139;28;20178;-63
2020/12/05 09:16:20;;;;;;;1.70;0.20;;;5.70;99.90;;;;;;5026637;28;20264;-63
2020/12/05 09:18:48;;;;;;;1.73;0.20;;;5.70;99.90;;;;;;5027345;28;20195;-63
2020/12/05 09:21:16;;;;;;;1.73;0.20;;;5.80;99.90;;;;;;5027388;28;20538;-63
2020/12/05 09:23:43;;;;;;;1.70;0.20;;;5.80;99.90;;;;;;5026106;28;20557;-63
2020/12/05 09:26:09;;;;;;;1.70;0.20;;;5.90;99.90;;;;;;5030367;28;20253;-63
2020/12/05 09:28:35;;;;;;;1.70;0.20;;;5.90;99.90;;;;;;5026266;28;20464;-63
2020/12/05 09:31:06;;;;;;;1.70;0.20;;;5.90;99.90;;;;;;5024222;28;20483;-62
2020/12/05 09:33:32;;;;;;;1.70;0.20;;;5.90;99.90;;;;;;5026272;28;20181;-62
2020/12/05 09:35:58;;;;;;;1.70;0.20;;;5.90;99.90;;;;;;5026533;28;20437;-62
2020/12/05 09:38:23;;;;;;;1.70;0.20;;;5.90;99.90;;;;;;5026953;28;20316;-62
2020/12/05 09:40:49;;;;;;;1.70;0.20;;;6.00;99.90;;;;;;5029670;28;20263;-62
2020/12/05 09:43:15;;;;;;;1.70;0.20;;;5.90;99.90;;;;;;5030595;28;20650;-64
2020/12/05 09:45:41;;;;;;;1.70;0.20;;;5.90;99.90;;;;;;5020709;28;20457;-62
2020/12/05 09:48:07;;;;;;;1.70;0.20;;;5.90;99.90;;;;;;5028724;28;20283;-62
2020/12/05 09:50:32;;;;;;;1.70;0.20;;;5.90;99.90;;;;;;5026837;28;20467;-62
2020/12/05 09:52:59;;;;;;;1.70;0.20;;;5.90;99.90;;;;;;5030428;28;20210;-62
2020/12/05 09:55:25;;;;;;;1.70;0.20;;;5.90;99.90;;;;;;5031081;28;20183;-62
2020/12/05 09:57:51;;;;;;;1.70;0.20;;;5.90;99.90;;;;;;5031115;28;20269;-62
2020/12/05 10:00:16;;;;;;;1.70;0.20;;;6.00;99.90;;;;;;5028241;28;20543;-62
2020/12/05 10:02:42;;;;;;;1.70;0.20;;;6.10;99.90;;;;;;5033474;28;20192;-62
2020/12/05 10:05:10;;;;;;;1.70;0.20;;;6.10;99.90;;;;;;5030199;28;20190;-62
2020/12/05 10:07:37;;;;;;;1.70;0.20;;;6.10;99.90;;;;;;5025853;28;20286;-62
2020/12/05 10:10:05;;;;;;;1.70;0.20;;;6.20;99.90;;;;;;5029784;28;20456;-62
2020/12/05 10:12:32;;;;;;;1.70;0.20;;;6.20;99.90;;;;;;5032577;28;20436;-63
2020/12/05 10:14:57;;;;;;;1.80;0.40;;;6.30;99.90;;;;;;5028949;28;20436;-62
2020/12/05 10:17:23;;;;;;;1.70;0.20;;;6.30;99.90;;;;;;5032670;28;21155;-62
2020/12/05 10:19:49;;;;;;;1.70;0.20;;;6.30;99.90;;;;;;5027138;28;20231;-63
2020/12/05 10:22:14;;;;;;;1.70;0.20;;;6.30;99.90;;;;;;5030954;28;20692;-62
2020/12/05 10:24:39;;;;;;;1.80;0.30;;;6.40;99.90;;;;;;5032161;28;20636;-61
2020/12/05 10:27:06;;;;;;;1.70;0.20;;;6.40;99.90;;;;;;5022413;28;20213;-61
2020/12/05 10:29:32;;;;;;;1.70;0.20;;;6.40;99.90;;;;;;5032276;28;20262;-63
2020/12/05 10:31:57;;;;;;;1.70;0.20;;;6.50;99.90;;;;;;5020262;28;20754;-62
2020/12/05 10:34:23;;;;;;;1.70;0.20;;;6.50;99.90;;;;;;5025914;28;20188;-63
2020/12/05 10:36:49;;;;;;;1.70;0.20;;;6.50;99.90;;;;;;5026127;28;20637;-63
2020/12/05 10:39:15;;;;;;;1.70;0.20;;;6.40;99.90;;;;;;5027984;28;20213;-63
2020/12/05 10:41:41;;;;;;;1.80;0.40;;;6.40;99.90;;;;;;5026336;28;20839;-63
2020/12/05 10:44:09;;;;;;;1.70;0.20;;;6.40;99.90;;;;;;5032321;28;20478;-63
2020/12/05 10:46:43;;;;;;;1.70;0.20;;;6.40;99.90;;;;;;5030815;28;20887;-63
2020/12/05 10:49:09;;;;;;;1.70;0.20;;;6.50;99.90;;;;;;5022373;28;20476;-63
2020/12/05 10:51:35;;;;;;;1.70;0.20;;;6.50;99.90;;;;;;5029353;28;20463;-63
2020/12/05 10:54:01;;;;;;;1.70;0.20;;;6.60;99.90;;;;;;5024317;28;20197;-64
2020/12/05 10:56:26;;;;;;;1.70;0.20;;;6.60;99.90;;;;;;5027595;28;20923;-64
2020/12/05 10:58:52;;;;;;;1.70;0.20;;;6.60;99.90;;;;;;5026583;28;20185;-64
2020/12/05 11:01:18;;;;;;;1.70;0.20;;;6.60;99.90;;;;;;5023457;28;20228;-64
2020/12/05 11:03:43;;;;;;;1.70;0.20;;;6.70;99.90;;;;;;5022599;28;20556;-64
2020/12/05 11:06:09;;;;;;;1.70;0.20;;;6.70;99.90;;;;;;5024477;28;20303;-66
2020/12/05 11:08:34;;;;;;;1.73;0.30;;;6.70;99.90;;;;;;5021886;28;20229;-64
2020/12/05 11:11:00;;;;;;;1.70;0.20;;;6.70;99.90;;;;;;5027957;28;20212;-64
2020/12/05 11:13:25;;;;;;;16.13;14.93;;;6.60;99.90;;;;;;5030829;28;20200;-64
2020/12/05 11:15:51;;;;;;;1.70;0.20;;;6.70;99.90;;;;;;5023726;28;20649;-64
2020/12/05 11:18:16;;;;;;;1.70;0.20;;;6.70;99.90;;;;;;5026943;28;20189;-64
2020/12/05 11:20:42;;;;;;;1.70;0.20;;;6.70;99.90;;;;;;5022446;28;20202;-63
2020/12/05 11:23:07;;;;;;;1.70;0.20;;;6.80;99.90;;;;;;5027550;28;20217;-63
2020/12/05 11:25:33;;;;;;;1.70;0.20;;;6.70;99.90;;;;;;5028763;28;20197;-63
2020/12/05 11:27:58;;;;;;;1.70;0.20;;;6.70;99.90;;;;;;5021895;28;20222;-63
2020/12/05 11:30:24;;;;;;;1.70;0.20;;;6.70;99.90;;;;;;5026196;28;20225;-63
2020/12/05 11:32:49;;;;;;;1.70;0.20;;;6.70;99.90;;;;;;5030278;28;20190;-63
2020/12/05 11:35:15;;;;;;;1.70;0.20;;;6.70;99.90;;;;;;5029430;28;20201;-63
2020/12/05 11:37:40;;;;;;;1.70;0.20;;;6.70;99.90;;;;;;5028961;28;20193;-64
2020/12/05 11:40:06;;;;;;;1.70;0.20;;;6.70;99.90;;;;;;5027569;28;20273;-63
2020/12/05 11:42:32;;;;;;;1.70;0.20;;;6.70;99.90;;;;;;5026404;28;20217;-64
2020/12/05 11:44:58;;;;;;;1.70;0.20;;;6.70;99.90;;;;;;5039607;28;20179;-64
2020/12/05 11:47:24;;;;;;;1.70;0.20;;;6.70;99.90;;;;;;5040242;28;20452;-63
2020/12/05 11:49:50;;;;;;;1.70;0.20;;;6.70;99.90;;;;;;5043396;28;20448;-64
2020/12/05 11:52:15;;;;;;;1.70;0.20;;;6.80;99.90;;;;;;5043580;28;21049;-63
2020/12/05 11:54:41;;;;;;;1.70;0.20;;;6.80;99.90;;;;;;5032486;28;20200;-64
2020/12/05 11:57:06;;;;;;;1.70;0.20;;;6.80;99.90;;;;;;5020084;28;20182;-63
2020/12/05 11:59:32;;;;;;;1.70;0.20;;;6.90;99.90;;;;;;5027312;28;20580;-63
2020/12/05 12:01:59;;;;;;;1.70;0.20;;;7.00;99.90;;;;;;5024000;28;20666;-63
2020/12/05 12:04:24;;;;;;;1.70;0.20;;;6.90;99.90;;;;;;5023511;28;20181;-63
2020/12/05 12:06:49;;;;;;;1.70;0.20;;;6.90;99.90;;;;;;5028869;28;20515;-63
2020/12/05 12:09:15;;;;;;;1.70;0.20;;;6.90;99.90;;;;;;5027318;28;20213;-63
2020/12/05 12:11:41;;;;;;;1.70;0.20;;;6.90;99.90;;;;;;5030187;28;20255;-64
2020/12/05 12:14:06;;;;;;;1.70;0.20;;;6.90;99.90;;;;;;5027134;28;20198;-63
2020/12/05 12:16:32;;;;;;;1.70;0.20;;;6.90;99.90;;;;;;5029028;28;20266;-63
2020/12/05 12:18:57;;;;;;;1.80;0.40;;;6.90;99.90;;;;;;5033426;28;20276;-63
2020/12/05 12:21:26;;;;;;;1.70;0.20;;;6.80;99.90;;;;;;5031620;28;20568;-63
2020/12/05 12:23:52;;;;;;;1.70;0.30;;;6.70;99.90;;;;;;5028898;28;20221;-64
2020/12/05 12:26:18;;;;;;;1.70;0.20;;;6.70;99.90;;;;;;5032920;28;20428;-64
2020/12/05 12:28:44;;;;;;;1.70;0.20;;;6.70;99.90;;;;;;5031793;28;20474;-63
2020/12/05 12:31:10;;;;;;;1.70;0.20;;;6.60;99.90;;;;;;5023029;28;20628;-63
2020/12/05 12:33:38;;;;;;;1.90;0.67;;;6.60;99.90;;;;;;5035078;28;20514;-64
2020/12/05 12:36:04;;;;;;;1.70;0.20;;;6.60;99.90;;;;;;5029438;28;20435;-64
2020/12/05 12:38:29;;;;;;;1.70;0.20;;;6.60;99.90;;;;;;5028895;28;20516;-64
2020/12/05 12:40:55;;;;;;;1.70;0.20;;;6.60;99.90;;;;;;5029899;28;20551;-63
2020/12/05 12:43:20;;;;;;;1.70;0.20;;;6.60;99.90;;;;;;5027492;28;20260;-63
2020/12/05 12:45:46;;;;;;;1.70;0.20;;;6.60;99.90;;;;;;5059251;22;20264;-59
2020/12/05 12:50:37;;;;;;;1.70;0.20;;;6.70;99.90;;;;;;5047605;28;20432;-59
2020/12/05 12:53:06;;;;;;;1.70;0.20;;;6.80;99.90;;;;;;5049815;28;20232;-59
2020/12/05 12:55:31;;;;;;;1.70;0.20;;;6.70;99.90;;;;;;5044225;28;20197;-59
2020/12/05 12:58:09;;;;;;;1.70;0.20;;;6.70;99.90;;;;;;5044064;28;20494;-59
2020/12/05 13:00:35;;;;;;;1.70;0.20;;;6.70;99.90;;;;;;5047903;28;20264;-59
2020/12/05 13:03:00;;;;;;;1.70;0.20;;;6.80;99.90;;;;;;5050899;28;20518;-59
2020/12/05 13:05:26;;;;;;;1.70;0.20;;;6.70;99.90;;;;;;5047197;28;20213;-59